createdAt,value
2019-04-21T00:01:08.053Z,7.09
2019-04-21T00:03:41.070Z,6.95
2019-04-21T00:06:22.384Z,7.00
2019-04-21T00:08:59.293Z,6.94
2019-04-21T00:11:29.906Z,6.87
2019-04-21T00:13:47.012Z,6.99
2019-04-21T00:16:10.862Z,7.12
2019-04-21T00:19:19.063Z,6.97
2019-04-21T00:21:49.491Z,6.91
2019-04-21T00:24:25.105Z,6.73
2019-04-21T00:27:02.501Z,6.71
2019-04-21T00:29:41.003Z,6.56
2019-04-21T00:32:03.001Z,6.32
2019-04-21T00:34:17.645Z,6.25
2019-04-21T00:36:57.284Z,6.35
2019-04-21T00:39:43.661Z,6.73
2019-04-21T00:42:05.496Z,6.64
2019-04-21T00:44:30.805Z,6.80
2019-04-21T00:47:05.425Z,6.60
2019-04-21T00:49:35.751Z,6.41
2019-04-21T00:52:49.187Z,6.41
2019-04-21T00:55:18.788Z,6.37
2019-04-21T00:57:38.845Z,6.28
2019-04-21T01:00:07.276Z,6.36
2019-04-21T01:02:41.328Z,6.40
2019-04-21T01:05:15.126Z,6.48
2019-04-21T01:07:35.815Z,5.97
2019-04-21T01:10:02.356Z,5.89
2019-04-21T01:12:38.007Z,5.89
2019-04-21T01:15:15.674Z,6.01
2019-04-21T01:17:40.868Z,6.37
2019-04-21T01:20:02.842Z,6.16
2019-04-21T01:22:19.294Z,5.98
2019-04-21T01:24:57.864Z,5.71
2019-04-21T01:27:39.854Z,5.71
2019-04-21T01:30:14.318Z,5.92
2019-04-21T01:32:46.876Z,5.94
2019-04-21T01:35:08.884Z,6.09
2019-04-21T01:37:44.127Z,6.09
2019-04-21T01:40:18.406Z,5.72
2019-04-21T01:42:48.141Z,5.72
2019-04-21T01:45:09.494Z,5.50
2019-04-21T01:47:44.684Z,5.44
2019-04-21T01:50:02.828Z,5.66
2019-04-21T01:52:49.897Z,5.78
2019-04-21T01:55:20.988Z,5.83
2019-04-21T01:58:15.324Z,5.71
2019-04-21T02:00:51.959Z,5.46
2019-04-21T02:06:07.670Z,5.37
2019-04-21T02:08:27.562Z,5.42
2019-04-21T02:11:07.550Z,5.40
2019-04-21T02:13:27.945Z,5.42
2019-04-21T02:16:02.054Z,5.42
2019-04-21T02:18:27.309Z,5.40
2019-04-21T02:20:50.107Z,5.37
2019-04-21T02:23:38.519Z,5.28
2019-04-21T02:26:03.860Z,5.28
2019-04-21T02:28:42.807Z,5.10
2019-04-21T02:31:20.608Z,5.25
2019-04-21T02:33:55.770Z,5.33
2019-04-21T02:39:00.271Z,5.72
2019-04-21T02:41:12.839Z,5.72
2019-04-21T02:46:23.738Z,5.38
2019-04-21T02:51:21.847Z,5.57
2019-04-21T02:54:32.362Z,5.66
2019-04-21T02:56:29.763Z,5.50
2019-04-21T02:59:03.131Z,5.35
2019-04-21T03:01:46.330Z,5.22
2019-04-21T03:04:30.238Z,5.06
2019-04-21T03:07:11.488Z,5.22
2019-04-21T03:09:35.823Z,5.51
2019-04-21T03:14:50.234Z,5.03
2019-04-21T03:17:05.728Z,5.16
2019-04-21T03:19:44.765Z,5.02
2019-04-21T03:22:14.194Z,5.02
2019-04-21T03:24:53.989Z,5.09
2019-04-21T03:27:18.179Z,5.06
2019-04-21T03:29:48.276Z,5.12
2019-04-21T03:35:14.959Z,4.78
2019-04-21T03:37:16.771Z,4.78
2019-04-21T03:39:48.578Z,4.76
2019-04-21T03:44:46.158Z,4.78
2019-04-21T03:52:20.112Z,4.75
2019-04-21T03:55:48.828Z,4.87
2019-04-21T03:58:04.643Z,4.76
2019-04-21T04:00:42.482Z,4.83
2019-04-21T04:03:42.197Z,4.66
2019-04-21T04:14:04.099Z,4.69
2019-04-21T04:16:37.885Z,4.60
2019-04-21T04:18:57.725Z,4.38
2019-04-21T04:24:22.625Z,4.35
2019-04-21T04:26:47.190Z,4.39
2019-04-21T04:29:12.333Z,4.20
2019-04-21T04:31:37.731Z,4.08
2019-04-21T04:34:18.769Z,4.14
2019-04-21T04:49:47.940Z,4.63
2019-04-21T04:52:31.406Z,4.74
2019-04-21T04:57:23.564Z,4.84
2019-04-21T04:59:47.796Z,4.78
2019-04-21T05:02:26.496Z,4.90
2019-04-21T05:04:59.020Z,4.99
2019-04-21T05:07:15.117Z,5.01
2019-04-21T05:09:46.603Z,5.01
2019-04-21T05:12:08.953Z,5.03
2019-04-21T05:14:46.733Z,5.12
2019-04-21T05:17:24.914Z,5.31
2019-04-21T05:20:05.908Z,5.47
2019-04-21T05:24:39.036Z,5.59
2019-04-21T05:27:07.492Z,5.62
2019-04-21T05:29:53.582Z,5.65
2019-04-21T05:32:28.285Z,5.69
2019-04-21T05:35:08.026Z,5.98
2019-04-21T05:37:47.401Z,6.05
2019-04-21T05:40:24.886Z,6.49
2019-04-21T05:42:59.831Z,6.49
2019-04-21T05:45:50.039Z,6.78
2019-04-21T05:48:24.212Z,6.78
2019-04-21T05:50:44.146Z,6.94
2019-04-21T05:53:25.353Z,7.09
2019-04-21T05:55:58.649Z,7.30
2019-04-21T05:58:25.914Z,7.38
2019-04-21T06:03:30.744Z,7.74
2019-04-21T06:08:31.904Z,7.99
2019-04-21T06:11:00.209Z,8.11
2019-04-21T06:16:04.015Z,8.38
2019-04-21T06:18:42.090Z,8.49
2019-04-21T06:21:05.706Z,8.69
2019-04-21T06:23:35.924Z,8.86
2019-04-21T06:26:19.849Z,9.02
2019-04-21T06:28:41.687Z,9.24
2019-04-21T06:33:41.743Z,9.81
2019-04-21T06:39:04.622Z,10.41
2019-04-21T06:41:31.513Z,10.63
2019-04-21T06:44:01.801Z,10.68
2019-04-21T06:51:45.530Z,11.03
2019-04-21T06:54:03.384Z,11.20
2019-04-21T06:56:39.126Z,11.26
2019-04-21T06:59:00.682Z,11.24
2019-04-21T07:01:38.995Z,11.32
2019-04-21T07:04:11.825Z,11.37
2019-04-21T07:06:45.733Z,11.43
2019-04-21T07:09:15.866Z,11.59
2019-04-21T07:11:36.825Z,11.70
2019-04-21T07:16:45.236Z,11.77
2019-04-21T07:19:23.467Z,11.80
2019-04-21T07:21:38.299Z,11.98
2019-04-21T07:24:15.766Z,12.10
2019-04-21T07:26:47.637Z,12.20
2019-04-21T07:29:15.785Z,12.35
2019-04-21T07:31:46.985Z,12.45
2019-04-21T07:34:19.599Z,12.56
2019-04-21T07:36:50.899Z,12.56
2019-04-21T07:39:10.698Z,12.52
2019-04-21T07:41:38.598Z,12.66
2019-04-21T07:44:04.586Z,12.82
2019-04-21T07:46:37.175Z,12.92
2019-04-21T07:49:43.602Z,12.93
2019-04-21T07:52:33.508Z,13.07
2019-04-21T07:55:10.907Z,13.13
2019-04-21T07:57:23.786Z,13.27
2019-04-21T08:00:21.062Z,13.30
2019-04-21T08:02:29.335Z,13.32
2019-04-21T08:05:20.003Z,13.38
2019-04-21T08:07:51.912Z,13.47
2019-04-21T08:10:14.469Z,13.63
2019-04-21T08:12:41.970Z,13.67
2019-04-21T08:15:23.447Z,13.62
2019-04-21T08:17:41.413Z,13.74
2019-04-21T08:20:16.796Z,13.72
2019-04-21T08:25:15.177Z,13.92
2019-04-21T08:30:22.848Z,13.99
2019-04-21T08:35:54.813Z,14.16
2019-04-21T08:37:48.102Z,14.24
2019-04-21T08:40:26.451Z,14.34
2019-04-21T08:42:54.017Z,14.52
2019-04-21T08:47:55.279Z,14.63
2019-04-21T08:50:20.545Z,14.68
2019-04-21T08:52:57.010Z,14.74
2019-04-21T08:56:04.129Z,14.77
2019-04-21T08:58:41.382Z,14.83
2019-04-21T09:01:38.345Z,15.18
2019-04-21T09:04:11.116Z,15.31
2019-04-21T09:09:11.812Z,15.44
2019-04-21T09:11:37.614Z,15.51
2019-04-21T09:14:07.302Z,15.60
2019-04-21T09:16:35.425Z,15.83
2019-04-21T09:19:04.689Z,16.15
2019-04-21T09:21:54.585Z,16.05
2019-04-21T09:24:13.299Z,16.04
2019-04-21T09:26:34.004Z,16.22
2019-04-21T09:29:04.310Z,16.34
2019-04-21T09:31:33.823Z,16.34
2019-04-21T09:34:03.179Z,16.43
2019-04-21T09:36:41.284Z,16.34
2019-04-21T09:39:18.256Z,16.48
2019-04-21T09:41:51.182Z,16.76
2019-04-21T09:44:30.207Z,16.61
2019-04-21T09:46:56.642Z,16.68
2019-04-21T09:49:27.420Z,16.95
2019-04-21T09:51:55.245Z,17.10
2019-04-21T09:54:28.464Z,17.11
2019-04-21T09:57:01.651Z,17.08
2019-04-21T09:59:29.969Z,17.01
2019-04-21T10:02:06.543Z,16.95
2019-04-21T10:04:26.698Z,17.04
2019-04-21T10:06:56.320Z,17.09
2019-04-21T10:09:26.444Z,17.20
2019-04-21T10:11:57.023Z,17.15
2019-04-21T10:14:26.428Z,17.45
2019-04-21T10:17:29.635Z,17.58
2019-04-21T10:19:58.793Z,17.63
2019-04-21T10:22:28.857Z,17.84
2019-04-21T10:24:58.507Z,17.93
2019-04-21T10:27:27.711Z,17.94
2019-04-21T10:29:58.022Z,17.81
2019-04-21T10:32:28.195Z,18.07
2019-04-21T10:34:59.190Z,17.87
2019-04-21T10:37:42.787Z,17.94
2019-04-21T10:40:00.010Z,17.95
2019-04-21T10:42:29.143Z,18.03
2019-04-21T10:44:58.884Z,18.16
2019-04-21T10:47:29.348Z,18.11
2019-04-21T10:49:58.414Z,18.07
2019-04-21T10:52:34.765Z,18.03
2019-04-21T10:55:20.745Z,18.04
2019-04-21T10:57:34.882Z,18.25
2019-04-21T11:00:05.829Z,18.45
2019-04-21T11:02:44.621Z,18.44
2019-04-21T11:05:14.572Z,18.50
2019-04-21T11:08:01.081Z,18.54
2019-04-21T11:10:18.497Z,18.60
2019-04-21T11:12:47.837Z,18.74
2019-04-21T11:15:17.185Z,18.91
2019-04-21T11:17:47.335Z,19.07
